Terminal Aerodrome Forecast
Issued by NWS Missoula, MT

Home | Current Version | Previous Version | Text Only | Print | Product List | Glossary On
Versions: 1 2 3 4 5 6 7 8 9 10 11 12 13 14 15
000
FTUS45 KMSO 252340 AAA
TAFBTM
TAF AMD
KBTM 252340Z 2600/2624 29010G20KT P6SM -TSRA SCT100CB
     FM260005 30007KT P6SM VCSH SCT090
     FM260400 15005KT P6SM SKC=

USA.gov is the U.S. government's official web portal to all federal, state and local government web resources and services.